sensor_id;sensor_type;location;lat;lon;timestamp;pressure;altitude;pressure_sealevel;temperature;humidity
26697;BME280;14312;52.614;13.496;2023-06-26T00:02:21;100948.06;;;22.90;58.29
26697;BME280;14312;52.614;13.496;2023-06-26T00:05:07;100952.25;;;22.87;58.46
26697;BME280;14312;52.614;13.496;2023-06-26T00:07:53;100949.53;;;22.87;58.48
26697;BME280;14312;52.614;13.496;2023-06-26T00:10:39;100950.94;;;22.85;58.56
26697;BME280;14312;52.614;13.496;2023-06-26T00:13:25;100952.84;;;22.84;58.76
26697;BME280;14312;52.614;13.496;2023-06-26T00:16:11;100948.53;;;22.83;58.52
26697;BME280;14312;52.614;13.496;2023-06-26T00:18:57;100948.38;;;22.80;58.71
26697;BME280;14312;52.614;13.496;2023-06-26T00:21:44;100946.47;;;22.80;58.72
26697;BME280;14312;52.614;13.496;2023-06-26T00:24:33;100947.56;;;22.79;58.79
26697;BME280;14312;52.614;13.496;2023-06-26T00:27:19;100950.59;;;22.78;58.66
26697;BME280;14312;52.614;13.496;2023-06-26T00:30:05;100948.19;;;22.76;58.63
26697;BME280;14312;52.614;13.496;2023-06-26T00:32:51;100951.00;;;22.71;58.81
26697;BME280;14312;52.614;13.496;2023-06-26T00:35:37;100947.50;;;22.71;58.89
26697;BME280;14312;52.614;13.496;2023-06-26T00:38:23;100948.91;;;22.68;59.07
26697;BME280;14312;52.614;13.496;2023-06-26T00:41:09;100936.44;;;22.67;58.99
26697;BME280;14312;52.614;13.496;2023-06-26T00:43:58;100938.69;;;22.65;59.15
26697;BME280;14312;52.614;13.496;2023-06-26T00:46:44;100931.16;;;22.62;59.16
26697;BME280;14312;52.614;13.496;2023-06-26T00:49:30;100934.34;;;22.64;59.34
26697;BME280;14312;52.614;13.496;2023-06-26T00:52:16;100932.75;;;22.63;59.38
26697;BME280;14312;52.614;13.496;2023-06-26T00:55:04;100930.03;;;22.63;59.51
26697;BME280;14312;52.614;13.496;2023-06-26T00:57:50;100932.75;;;22.63;59.50
26697;BME280;14312;52.614;13.496;2023-06-26T01:00:36;100927.31;;;22.63;59.67
26697;BME280;14312;52.614;13.496;2023-06-26T01:03:23;100933.25;;;22.65;59.75
26697;BME280;14312;52.614;13.496;2023-06-26T01:06:11;100927.47;;;22.66;59.81
26697;BME280;14312;52.614;13.496;2023-06-26T01:08:59;100924.47;;;22.68;59.77
26697;BME280;14312;52.614;13.496;2023-06-26T01:11:45;100921.44;;;22.70;59.72
26697;BME280;14312;52.614;13.496;2023-06-26T01:14:33;100921.66;;;22.73;59.97
26697;BME280;14312;52.614;13.496;2023-06-26T01:17:21;100910.78;;;22.73;59.97
26697;BME280;14312;52.614;13.496;2023-06-26T01:20:09;100917.00;;;22.74;60.02
26697;BME280;14312;52.614;13.496;2023-06-26T01:26:09;100912.25;;;22.79;60.40
26697;BME280;14312;52.614;13.496;2023-06-26T01:28:58;100917.97;;;22.78;59.99
26697;BME280;14312;52.614;13.496;2023-06-26T01:31:46;100916.69;;;22.75;59.84
26697;BME280;14312;52.614;13.496;2023-06-26T01:34:34;100909.81;;;22.78;60.08
26697;BME280;14312;52.614;13.496;2023-06-26T01:37:20;100908.53;;;22.75;59.97
26697;BME280;14312;52.614;13.496;2023-06-26T01:40:07;100907.72;;;22.75;60.04
26697;BME280;14312;52.614;13.496;2023-06-26T01:42:53;100902.09;;;22.71;60.02
26697;BME280;14312;52.614;13.496;2023-06-26T01:45:39;100902.09;;;22.71;60.01
26697;BME280;14312;52.614;13.496;2023-06-26T01:48:30;100902.91;;;22.72;60.41
26697;BME280;14312;52.614;13.496;2023-06-26T01:51:17;100898.88;;;22.69;60.22
26697;BME280;14312;52.614;13.496;2023-06-26T01:54:12;100897.94;;;22.65;60.51
26697;BME280;14312;52.614;13.496;2023-06-26T01:57:00;100902.56;;;22.64;60.09
26697;BME280;14312;52.614;13.496;2023-06-26T01:59:47;100896.94;;;22.61;60.35
26697;BME280;14312;52.614;13.496;2023-06-26T02:02:34;100887.69;;;22.62;60.33
26697;BME280;14312;52.614;13.496;2023-06-26T02:05:20;100899.19;;;22.59;60.51
26697;BME280;14312;52.614;13.496;2023-06-26T02:08:08;100890.53;;;22.57;60.74
26697;BME280;14312;52.614;13.496;2023-06-26T02:10:54;100888.94;;;22.56;60.43
26697;BME280;14312;52.614;13.496;2023-06-26T02:13:40;100882.69;;;22.55;60.47
26697;BME280;14312;52.614;13.496;2023-06-26T02:16:26;100891.97;;;22.54;60.60
26697;BME280;14312;52.614;13.496;2023-06-26T02:19:12;100881.91;;;22.55;60.59
26697;BME280;14312;52.614;13.496;2023-06-26T02:21:58;100872.44;;;22.52;60.68
26697;BME280;14312;52.614;13.496;2023-06-26T02:24:44;100880.28;;;22.54;60.84
26697;BME280;14312;52.614;13.496;2023-06-26T02:27:30;100877.56;;;22.54;60.71
26697;BME280;14312;52.614;13.496;2023-06-26T02:30:15;100885.72;;;22.54;60.92
26697;BME280;14312;52.614;13.496;2023-06-26T02:33:01;100887.34;;;22.55;60.88
26697;BME280;14312;52.614;13.496;2023-06-26T02:35:48;100881.91;;;22.55;61.02
26697;BME280;14312;52.614;13.496;2023-06-26T02:38:35;100885.72;;;22.54;61.06
26697;BME280;14312;52.614;13.496;2023-06-26T02:41:22;100881.09;;;22.54;61.08
26697;BME280;14312;52.614;13.496;2023-06-26T02:44:08;100881.91;;;22.55;61.06
26697;BME280;14312;52.614;13.496;2023-06-26T02:46:54;100878.06;;;22.56;61.07
26697;BME280;14312;52.614;13.496;2023-06-26T02:49:40;100872.63;;;22.56;61.11
26697;BME280;14312;52.614;13.496;2023-06-26T02:52:25;100878.06;;;22.56;61.31
26697;BME280;14312;52.614;13.496;2023-06-26T02:55:11;100872.63;;;22.56;61.15
26697;BME280;14312;52.614;13.496;2023-06-26T02:57:57;100876.47;;;22.55;60.93
26697;BME280;14312;52.614;13.496;2023-06-26T03:00:44;100877.56;;;22.54;61.22
26697;BME280;14312;52.614;13.496;2023-06-26T03:03:30;100873.25;;;22.53;61.19
26697;BME280;14312;52.614;13.496;2023-06-26T03:06:16;100873.91;;;22.50;61.15
26697;BME280;14312;52.614;13.496;2023-06-26T03:09:02;100865.25;;;22.48;61.19
26697;BME280;14312;52.614;13.496;2023-06-26T03:11:48;100866.38;;;22.47;61.46
26697;BME280;14312;52.614;13.496;2023-06-26T03:14:34;100862.03;;;22.46;61.52
26697;BME280;14312;52.614;13.496;2023-06-26T03:17:20;100858.84;;;22.44;61.57
26697;BME280;14312;52.614;13.496;2023-06-26T03:20:07;100851.31;;;22.41;61.59
26697;BME280;14312;52.614;13.496;2023-06-26T03:22:53;100866.50;;;22.42;61.62
26697;BME280;14312;52.614;13.496;2023-06-26T03:25:39;100857.56;;;22.41;61.57
26697;BME280;14312;52.614;13.496;2023-06-26T03:28:25;100850.81;;;22.39;61.70
26697;BME280;14312;52.614;13.496;2023-06-26T03:31:11;100862.50;;;22.39;61.65
26697;BME280;14312;52.614;13.496;2023-06-26T03:33:57;100851.97;;;22.38;61.62
26697;BME280;14312;52.614;13.496;2023-06-26T03:36:42;100855.47;;;22.38;61.73
26697;BME280;14312;52.614;13.496;2023-06-26T03:39:28;100853.09;;;22.37;61.80
26697;BME280;14312;52.614;13.496;2023-06-26T03:42:15;100853.88;;;22.37;61.76
26697;BME280;14312;52.614;13.496;2023-06-26T03:45:00;100851.47;;;22.36;61.73
26697;BME280;14312;52.614;13.496;2023-06-26T03:47:46;100844.44;;;22.35;61.82
26697;BME280;14312;52.614;13.496;2023-06-26T03:50:34;100845.25;;;22.35;61.91
26697;BME280;14312;52.614;13.496;2023-06-26T03:53:20;100841.22;;;22.33;61.85
26697;BME280;14312;52.614;13.496;2023-06-26T03:56:06;100847.16;;;22.35;61.95
26697;BME280;14312;52.614;13.496;2023-06-26T03:58:52;100842.03;;;22.33;62.07
26697;BME280;14312;52.614;13.496;2023-06-26T04:01:38;100844.44;;;22.35;62.10
26697;BME280;14312;52.614;13.496;2023-06-26T04:04:24;100844.94;;;22.37;61.94
26697;BME280;14312;52.614;13.496;2023-06-26T04:07:10;100846.53;;;22.38;62.24
26697;BME280;14312;52.614;13.496;2023-06-26T04:09:55;100847.00;;;22.40;62.15
26697;BME280;14312;52.614;13.496;2023-06-26T04:12:41;100846.38;;;22.43;62.04
26697;BME280;14312;52.614;13.496;2023-06-26T04:15:27;100842.56;;;22.44;62.24
26697;BME280;14312;52.614;13.496;2023-06-26T04:18:13;100841.91;;;22.47;62.34
26697;BME280;14312;52.614;13.496;2023-06-26T04:21:10;100840.66;;;22.53;63.15
26697;BME280;14312;52.614;13.496;2023-06-26T04:23:57;100842.75;;;22.56;62.44
26697;BME280;14312;52.614;13.496;2023-06-26T04:26:43;100844.22;;;22.62;62.44
26697;BME280;14312;52.614;13.496;2023-06-26T04:29:31;100839.13;;;22.69;62.60
26697;BME280;14312;52.614;13.496;2023-06-26T04:32:17;100841.72;;;22.74;62.55
26697;BME280;14312;52.614;13.496;2023-06-26T04:35:03;100839.81;;;22.83;62.60
26697;BME280;14312;52.614;13.496;2023-06-26T04:37:49;100844.78;;;22.90;62.73
26697;BME280;14312;52.614;13.496;2023-06-26T04:40:35;100842.72;;;22.95;62.67
26697;BME280;14312;52.614;13.496;2023-06-26T04:43:21;100837.59;;;23.02;62.84
26697;BME280;14312;52.614;13.496;2023-06-26T04:46:07;100832.97;;;23.12;62.93
26697;BME280;14312;52.614;13.496;2023-06-26T04:48:52;100835.41;;;23.22;63.11
26697;BME280;14312;52.614;13.496;2023-06-26T04:51:38;100834.59;;;23.30;62.95
26697;BME280;14312;52.614;13.496;2023-06-26T04:54:26;100828.34;;;23.38;62.77
26697;BME280;14312;52.614;13.496;2023-06-26T04:57:13;100831.06;;;23.47;62.87
26697;BME280;14312;52.614;13.496;2023-06-26T05:00:00;100814.28;;;23.53;62.70
26697;BME280;14312;52.614;13.496;2023-06-26T05:02:46;100827.56;;;23.63;62.78
26697;BME280;14312;52.614;13.496;2023-06-26T05:05:32;100825.16;;;23.70;62.61
26697;BME280;14312;52.614;13.496;2023-06-26T05:08:22;100824.47;;;23.82;62.94
26697;BME280;14312;52.614;13.496;2023-06-26T05:11:08;100818.06;;;23.87;62.70
26697;BME280;14312;52.614;13.496;2023-06-26T05:13:54;100816.59;;;23.98;62.90
26697;BME280;14312;52.614;13.496;2023-06-26T05:16:40;100822.16;;;24.10;62.73
26697;BME280;14312;52.614;13.496;2023-06-26T05:19:26;100821.84;;;24.20;62.80
26697;BME280;14312;52.614;13.496;2023-06-26T05:22:16;100820.81;;;24.33;63.12
26697;BME280;14312;52.614;13.496;2023-06-26T05:25:03;100821.25;;;24.44;62.48
26697;BME280;14312;52.614;13.496;2023-06-26T05:27:50;100811.91;;;24.53;62.56
26697;BME280;14312;52.614;13.496;2023-06-26T05:30:36;100809.94;;;24.63;62.40
26697;BME280;14312;52.614;13.496;2023-06-26T05:33:24;100813.22;;;24.77;62.00
26697;BME280;14312;52.614;13.496;2023-06-26T05:36:12;100803.50;;;24.88;62.10
26697;BME280;14312;52.614;13.496;2023-06-26T05:38:58;100801.53;;;24.97;61.98
26697;BME280;14312;52.614;13.496;2023-06-26T05:41:44;100794.53;;;25.08;61.92
26697;BME280;14312;52.614;13.496;2023-06-26T05:44:30;100787.56;;;25.19;61.85
26697;BME280;14312;52.614;13.496;2023-06-26T05:47:16;100785.56;;;25.28;61.17
26697;BME280;14312;52.614;13.496;2023-06-26T05:50:03;100779.69;;;25.39;61.49
26697;BME280;14312;52.614;13.496;2023-06-26T05:52:49;100781.06;;;25.45;60.90
26697;BME280;14312;52.614;13.496;2023-06-26T05:55:36;100780.50;;;25.51;61.00
26697;BME280;14312;52.614;13.496;2023-06-26T05:58:23;100778.88;;;25.59;60.60
26697;BME280;14312;52.614;13.496;2023-06-26T06:01:10;100780.59;;;25.63;60.08
26697;BME280;14312;52.614;13.496;2023-06-26T06:03:56;100780.03;;;25.70;60.05
26697;BME280;14312;52.614;13.496;2023-06-26T06:06:42;100775.50;;;25.74;59.92
26697;BME280;14312;52.614;13.496;2023-06-26T06:09:28;100765.50;;;25.78;59.96
26697;BME280;14312;52.614;13.496;2023-06-26T06:12:14;100761.41;;;25.84;60.18
26697;BME280;14312;52.614;13.496;2023-06-26T06:15:00;100763.91;;;25.89;59.62
26697;BME280;14312;52.614;13.496;2023-06-26T06:17:46;100763.81;;;25.98;59.39
26697;BME280;14312;52.614;13.496;2023-06-26T06:20:32;100764.38;;;26.03;59.36
26697;BME280;14312;52.614;13.496;2023-06-26T06:23:18;100763.47;;;26.11;58.94
26697;BME280;14312;52.614;13.496;2023-06-26T06:26:04;100755.97;;;26.21;58.49
26697;BME280;14312;52.614;13.496;2023-06-26T06:28:50;100761.00;;;26.31;58.72
26697;BME280;14312;52.614;13.496;2023-06-26T06:31:36;100764.19;;;26.45;57.59
26697;BME280;14312;52.614;13.496;2023-06-26T06:34:21;100761.78;;;26.56;56.37
26697;BME280;14312;52.614;13.496;2023-06-26T06:37:07;100765.97;;;26.65;56.67
26697;BME280;14312;52.614;13.496;2023-06-26T06:39:54;100760.03;;;26.75;56.30
26697;BME280;14312;52.614;13.496;2023-06-26T06:42:39;100758.41;;;26.86;55.78
26697;BME280;14312;52.614;13.496;2023-06-26T06:45:25;100754.53;;;27.00;55.08
26697;BME280;14312;52.614;13.496;2023-06-26T06:48:11;100747.41;;;27.11;54.56
26697;BME280;14312;52.614;13.496;2023-06-26T06:50:57;100741.00;;;27.19;54.28
26697;BME280;14312;52.614;13.496;2023-06-26T06:53:43;100750.28;;;27.30;53.52
26697;BME280;14312;52.614;13.496;2023-06-26T06:56:29;100749.78;;;27.40;52.02
26697;BME280;14312;52.614;13.496;2023-06-26T06:59:15;100747.25;;;27.47;51.95
26697;BME280;14312;52.614;13.496;2023-06-26T07:02:01;100730.22;;;27.54;52.37
26697;BME280;14312;52.614;13.496;2023-06-26T07:04:47;100734.41;;;27.63;52.01
26697;BME280;14312;52.614;13.496;2023-06-26T07:07:34;100739.34;;;27.74;50.42
26697;BME280;14312;52.614;13.496;2023-06-26T07:10:21;100735.63;;;27.82;49.77
26697;BME280;14312;52.614;13.496;2023-06-26T07:13:07;100735.34;;;27.87;50.14
26697;BME280;14312;52.614;13.496;2023-06-26T07:15:53;100725.72;;;27.93;50.05
26697;BME280;14312;52.614;13.496;2023-06-26T07:18:38;100736.84;;;28.00;50.35
26697;BME280;14312;52.614;13.496;2023-06-26T07:21:24;100738.63;;;28.08;49.77
26697;BME280;14312;52.614;13.496;2023-06-26T07:24:10;100731.03;;;28.17;49.50
26697;BME280;14312;52.614;13.496;2023-06-26T07:26:57;100732.81;;;28.25;49.89
26697;BME280;14312;52.614;13.496;2023-06-26T07:29:42;100725.19;;;28.34;49.03
26697;BME280;14312;52.614;13.496;2023-06-26T07:32:28;100729.22;;;28.40;49.33
26697;BME280;14312;52.614;13.496;2023-06-26T07:35:15;100726.28;;;28.49;48.25
26697;BME280;14312;52.614;13.496;2023-06-26T07:38:01;100725.22;;;28.54;48.76
26697;BME280;14312;52.614;13.496;2023-06-26T07:40:47;100721.13;;;28.63;48.43
26697;BME280;14312;52.614;13.496;2023-06-26T07:43:33;100720.03;;;28.68;48.73
26697;BME280;14312;52.614;13.496;2023-06-26T07:46:18;100717.47;;;28.75;48.46
26697;BME280;14312;52.614;13.496;2023-06-26T07:49:04;100710.53;;;28.81;48.03
26697;BME280;14312;52.614;13.496;2023-06-26T07:51:50;100709.44;;;28.86;47.84
26697;BME280;14312;52.614;13.496;2023-06-26T07:54:37;100714.00;;;28.97;47.50
26697;BME280;14312;52.614;13.496;2023-06-26T07:57:23;100710.25;;;29.05;47.40
26697;BME280;14312;52.614;13.496;2023-06-26T08:00:10;100701.34;;;29.12;46.19
26697;BME280;14312;52.614;13.496;2023-06-26T08:02:56;100697.94;;;29.18;47.42
26697;BME280;14312;52.614;13.496;2023-06-26T08:05:42;100700.47;;;29.27;46.38
26697;BME280;14312;52.614;13.496;2023-06-26T08:08:28;100697.50;;;29.36;45.89
26697;BME280;14312;52.614;13.496;2023-06-26T08:11:14;100687.38;;;29.40;46.11
26697;BME280;14312;52.614;13.496;2023-06-26T08:14:00;100691.41;;;29.46;45.40
26697;BME280;14312;52.614;13.496;2023-06-26T08:16:46;100693.84;;;29.51;46.02
26697;BME280;14312;52.614;13.496;2023-06-26T08:19:33;100695.97;;;29.61;44.17
26697;BME280;14312;52.614;13.496;2023-06-26T08:22:19;100691.75;;;29.67;44.85
26697;BME280;14312;52.614;13.496;2023-06-26T08:25:05;100692.31;;;29.76;43.49
26697;BME280;14312;52.614;13.496;2023-06-26T08:27:51;100694.84;;;29.88;42.98
26697;BME280;14312;52.614;13.496;2023-06-26T08:30:38;100687.47;;;29.92;43.27
26697;BME280;14312;52.614;13.496;2023-06-26T08:33:24;100684.47;;;30.01;43.17
26697;BME280;14312;52.614;13.496;2023-06-26T08:36:10;100689.28;;;30.08;44.04
26697;BME280;14312;52.614;13.496;2023-06-26T08:38:56;100689.38;;;30.15;43.52
26697;BME280;14312;52.614;13.496;2023-06-26T08:41:42;100680.06;;;30.23;42.68
26697;BME280;14312;52.614;13.496;2023-06-26T08:44:28;100676.63;;;30.29;41.70
26697;BME280;14312;52.614;13.496;2023-06-26T08:47:15;100675.13;;;30.35;42.34
26697;BME280;14312;52.614;13.496;2023-06-26T08:50:08;100677.19;;;30.42;40.83
26697;BME280;14312;52.614;13.496;2023-06-26T08:53:09;100681.59;;;30.47;41.04
26697;BME280;14312;52.614;13.496;2023-06-26T08:56:00;100667.03;;;30.46;39.94
26697;BME280;14312;52.614;13.496;2023-06-26T08:58:47;100666.00;;;30.54;40.07
26697;BME280;14312;52.614;13.496;2023-06-26T09:01:34;100665.66;;;30.59;40.96
26697;BME280;14312;52.614;13.496;2023-06-26T09:04:21;100666.56;;;30.70;39.76
26697;BME280;14312;52.614;13.496;2023-06-26T09:07:07;100663.44;;;30.72;40.88
26697;BME280;14312;52.614;13.496;2023-06-26T09:09:53;100654.91;;;30.81;40.69
26697;BME280;14312;52.614;13.496;2023-06-26T09:12:40;100652.66;;;30.90;40.69
26697;BME280;14312;52.614;13.496;2023-06-26T09:15:25;100650.38;;;30.99;41.16
26697;BME280;14312;52.614;13.496;2023-06-26T09:18:12;100644.22;;;31.09;40.85
26697;BME280;14312;52.614;13.496;2023-06-26T09:20:59;100630.94;;;31.18;40.53
26697;BME280;14312;52.614;13.496;2023-06-26T09:23:45;100640.91;;;31.33;39.15
26697;BME280;14312;52.614;13.496;2023-06-26T09:26:31;100639.78;;;31.41;40.26
26697;BME280;14312;52.614;13.496;2023-06-26T09:29:21;100638.34;;;31.58;38.35
26697;BME280;14312;52.614;13.496;2023-06-26T09:32:08;100631.38;;;31.68;37.30
26697;BME280;14312;52.614;13.496;2023-06-26T09:34:55;100629.84;;;31.74;38.40
26697;BME280;14312;52.614;13.496;2023-06-26T09:37:41;100629.09;;;31.84;38.04
26697;BME280;14312;52.614;13.496;2023-06-26T09:40:27;100622.91;;;32.01;36.66
26697;BME280;14312;52.614;13.496;2023-06-26T09:43:13;100631.72;;;32.17;36.96
26697;BME280;14312;52.614;13.496;2023-06-26T09:46:00;100610.50;;;32.36;36.79
26697;BME280;14312;52.614;13.496;2023-06-26T09:48:47;100620.03;;;32.56;36.94
26697;BME280;14312;52.614;13.496;2023-06-26T09:51:34;100616.19;;;32.75;36.10
26697;BME280;14312;52.614;13.496;2023-06-26T09:54:21;100615.44;;;32.88;36.70
26697;BME280;14312;52.614;13.496;2023-06-26T09:57:09;100604.41;;;33.02;36.90
26697;BME280;14312;52.614;13.496;2023-06-26T09:59:56;100609.16;;;33.20;36.46
26697;BME280;14312;52.614;13.496;2023-06-26T10:02:42;100607.59;;;33.40;33.77
26697;BME280;14312;52.614;13.496;2023-06-26T10:05:28;100608.38;;;33.51;33.88
26697;BME280;14312;52.614;13.496;2023-06-26T10:08:14;100603.63;;;33.55;34.39
26697;BME280;14312;52.614;13.496;2023-06-26T10:11:01;100598.09;;;33.62;34.26
26697;BME280;14312;52.614;13.496;2023-06-26T10:13:49;100594.13;;;33.70;33.71
26697;BME280;14312;52.614;13.496;2023-06-26T10:16:37;100583.88;;;33.78;33.13
26697;BME280;14312;52.614;13.496;2023-06-26T10:19:26;100578.31;;;33.85;33.41
26697;BME280;14312;52.614;13.496;2023-06-26T10:22:15;100579.53;;;33.88;32.74
26697;BME280;14312;52.614;13.496;2023-06-26T10:25:04;100575.16;;;33.90;31.62
26697;BME280;14312;52.614;13.496;2023-06-26T10:27:57;100582.28;;;33.88;32.70
26697;BME280;14312;52.614;13.496;2023-06-26T10:30:44;100570.81;;;33.86;32.17
26697;BME280;14312;52.614;13.496;2023-06-26T10:33:33;100574.00;;;33.80;32.72
26697;BME280;14312;52.614;13.496;2023-06-26T10:36:27;100568.06;;;33.86;33.47
26697;BME280;14312;52.614;13.496;2023-06-26T10:39:14;100559.34;;;33.91;32.78
26697;BME280;14312;52.614;13.496;2023-06-26T10:42:08;100554.56;;;34.02;32.29
26697;BME280;14312;52.614;13.496;2023-06-26T10:44:55;100540.31;;;34.07;32.75
26697;BME280;14312;52.614;13.496;2023-06-26T10:47:54;100541.47;;;34.13;32.15
26697;BME280;14312;52.614;13.496;2023-06-26T10:50:40;100547.41;;;34.15;32.45
26697;BME280;14312;52.614;13.496;2023-06-26T10:53:26;100541.03;;;34.18;31.80
26697;BME280;14312;52.614;13.496;2023-06-26T10:56:12;100545.44;;;34.15;31.71
26697;BME280;14312;52.614;13.496;2023-06-26T10:59:20;100538.28;;;34.18;31.99
26697;BME280;14312;52.614;13.496;2023-06-26T11:02:06;100541.88;;;34.11;31.60
26697;BME280;14312;52.614;13.496;2023-06-26T11:04:53;100531.59;;;34.12;32.69
26697;BME280;14312;52.614;13.496;2023-06-26T11:08:16;100533.13;;;34.20;33.28
26697;BME280;14312;52.614;13.496;2023-06-26T11:11:05;100532.38;;;34.23;32.53
26697;BME280;14312;52.614;13.496;2023-06-26T11:13:51;100526.81;;;34.30;32.65
26697;BME280;14312;52.614;13.496;2023-06-26T11:16:38;100518.81;;;34.39;31.80
26697;BME280;14312;52.614;13.496;2023-06-26T11:19:28;100523.56;;;34.46;33.09
26697;BME280;14312;52.614;13.496;2023-06-26T11:22:15;100526.63;;;34.58;31.49
26697;BME280;14312;52.614;13.496;2023-06-26T11:25:02;100513.16;;;34.61;33.30
26697;BME280;14312;52.614;13.496;2023-06-26T11:27:49;100502.81;;;34.72;32.83
26697;BME280;14312;52.614;13.496;2023-06-26T11:30:35;100505.03;;;34.91;32.27
26697;BME280;14312;52.614;13.496;2023-06-26T11:33:26;100516.00;;;35.05;31.22
26697;BME280;14312;52.614;13.496;2023-06-26T11:36:12;100494.97;;;35.11;30.44
26697;BME280;14312;52.614;13.496;2023-06-26T11:39:02;100493.38;;;35.10;30.66
26697;BME280;14312;52.614;13.496;2023-06-26T11:41:49;100483.59;;;35.02;31.45
26697;BME280;14312;52.614;13.496;2023-06-26T11:44:40;100476.75;;;35.10;31.56
26697;BME280;14312;52.614;13.496;2023-06-26T11:47:27;100476.28;;;35.22;29.92
26697;BME280;14312;52.614;13.496;2023-06-26T11:50:16;100477.47;;;35.21;30.50
26697;BME280;14312;52.614;13.496;2023-06-26T11:53:06;100476.34;;;35.15;31.15
26697;BME280;14312;52.614;13.496;2023-06-26T11:55:53;100463.69;;;35.11;31.38
26697;BME280;14312;52.614;13.496;2023-06-26T11:58:59;100465.25;;;35.15;31.33
26697;BME280;14312;52.614;13.496;2023-06-26T12:01:46;100450.56;;;35.18;31.95
26697;BME280;14312;52.614;13.496;2023-06-26T12:04:40;100448.41;;;35.37;31.94
26697;BME280;14312;52.614;13.496;2023-06-26T12:07:27;100440.28;;;35.53;32.59
26697;BME280;14312;52.614;13.496;2023-06-26T12:10:14;100436.53;;;35.70;32.53
26697;BME280;14312;52.614;13.496;2023-06-26T12:13:03;100428.84;;;35.81;31.15
26697;BME280;14312;52.614;13.496;2023-06-26T12:15:49;100428.03;;;35.84;31.07
26697;BME280;14312;52.614;13.496;2023-06-26T12:18:36;100422.19;;;35.79;30.83
26697;BME280;14312;52.614;13.496;2023-06-26T12:24:23;100423.66;;;35.53;30.63
26697;BME280;14312;52.614;13.496;2023-06-26T12:27:11;100419.03;;;35.43;31.04
26697;BME280;14312;52.614;13.496;2023-06-26T12:29:57;100415.19;;;35.33;32.18
26697;BME280;14312;52.614;13.496;2023-06-26T12:32:46;100410.41;;;35.33;31.09
26697;BME280;14312;52.614;13.496;2023-06-26T12:35:33;100407.72;;;35.26;31.50
26697;BME280;14312;52.614;13.496;2023-06-26T12:38:19;100404.50;;;35.31;31.41
26697;BME280;14312;52.614;13.496;2023-06-26T12:41:12;100399.22;;;35.44;31.31
26697;BME280;14312;52.614;13.496;2023-06-26T12:44:01;100397.41;;;35.61;31.18
26697;BME280;14312;52.614;13.496;2023-06-26T12:46:49;100393.75;;;35.71;30.77
26697;BME280;14312;52.614;13.496;2023-06-26T12:49:36;100371.16;;;35.69;30.04
26697;BME280;14312;52.614;13.496;2023-06-26T12:52:22;100375.06;;;35.75;30.04
26697;BME280;14312;52.614;13.496;2023-06-26T12:55:08;100377.72;;;35.82;29.71
26697;BME280;14312;52.614;13.496;2023-06-26T12:57:55;100370.06;;;35.93;29.59
26697;BME280;14312;52.614;13.496;2023-06-26T13:00:41;100370.78;;;35.97;29.28
26697;BME280;14312;52.614;13.496;2023-06-26T13:03:27;100360.88;;;35.96;28.52
26697;BME280;14312;52.614;13.496;2023-06-26T13:06:15;100359.78;;;35.90;29.15
26697;BME280;14312;52.614;13.496;2023-06-26T13:09:02;100360.00;;;35.76;28.60
26697;BME280;14312;52.614;13.496;2023-06-26T13:11:54;100342.03;;;35.54;28.89
26697;BME280;14312;52.614;13.496;2023-06-26T13:14:40;100342.22;;;35.40;29.85
26697;BME280;14312;52.614;13.496;2023-06-26T13:17:26;100337.63;;;35.29;29.36
26697;BME280;14312;52.614;13.496;2023-06-26T13:20:13;100333.84;;;35.13;29.71
26697;BME280;14312;52.614;13.496;2023-06-26T13:22:59;100330.44;;;34.98;30.05
26697;BME280;14312;52.614;13.496;2023-06-26T13:25:45;100318.41;;;34.78;29.84
26697;BME280;14312;52.614;13.496;2023-06-26T13:28:31;100312.59;;;34.62;30.31
26697;BME280;14312;52.614;13.496;2023-06-26T13:31:18;100317.09;;;34.48;30.46
26697;BME280;14312;52.614;13.496;2023-06-26T13:34:04;100307.78;;;34.28;30.81
26697;BME280;14312;52.614;13.496;2023-06-26T13:36:51;100294.44;;;34.12;31.09
26697;BME280;14312;52.614;13.496;2023-06-26T13:39:37;100286.66;;;33.97;31.45
26697;BME280;14312;52.614;13.496;2023-06-26T13:42:26;100279.66;;;33.89;31.81
26697;BME280;14312;52.614;13.496;2023-06-26T13:45:12;100269.50;;;33.71;32.22
26697;BME280;14312;52.614;13.496;2023-06-26T13:47:58;100270.31;;;33.61;33.18
26697;BME280;14312;52.614;13.496;2023-06-26T13:50:45;100278.28;;;33.52;33.67
26697;BME280;14312;52.614;13.496;2023-06-26T13:53:35;100273.63;;;33.35;33.62
26697;BME280;14312;52.614;13.496;2023-06-26T13:56:21;100265.78;;;33.19;33.70
26697;BME280;14312;52.614;13.496;2023-06-26T13:59:08;100265.84;;;33.09;33.99
26697;BME280;14312;52.614;13.496;2023-06-26T14:01:54;100253.25;;;33.00;34.25
26697;BME280;14312;52.614;13.496;2023-06-26T14:04:40;100245.41;;;32.95;34.44
26697;BME280;14312;52.614;13.496;2023-06-26T14:07:29;100245.44;;;32.88;34.27
26697;BME280;14312;52.614;13.496;2023-06-26T14:10:15;100248.59;;;32.83;34.68
26697;BME280;14312;52.614;13.496;2023-06-26T14:13:02;100254.91;;;32.77;34.67
26697;BME280;14312;52.614;13.496;2023-06-26T14:15:49;100255.72;;;32.70;34.69
26697;BME280;14312;52.614;13.496;2023-06-26T14:18:38;100244.69;;;32.63;34.81
26697;BME280;14312;52.614;13.496;2023-06-26T14:21:24;100243.13;;;32.55;35.51
26697;BME280;14312;52.614;13.496;2023-06-26T14:24:12;100289.69;;;32.46;35.74
26697;BME280;14312;52.614;13.496;2023-06-26T14:26:58;100357.47;;;32.40;35.85
26697;BME280;14312;52.614;13.496;2023-06-26T14:29:44;100340.94;;;32.25;36.15